Time;durP1;ratioP1;P1;durP2;ratioP2;P2;SDS_P1;SDS_P2;PMS_P1;PMS_P2;Temp;Humidity;BMP_temperature;BMP_pressure;BME280_temperature;BME280_humidity;BME280_pressure;Samples;Min_cycle;Max_cycle;Signal;HPM_P1;HPM_P2
2023/10/17 00:01:46;;;;;;;10.00;4.95;;;;;;;;;;5053405;28;20056;-86
2023/10/17 00:06:48;;;;;;;11.00;3.92;;;;;;;;;;5053432;28;20480;-86
2023/10/17 00:09:26;;;;;;;9.15;3.95;;;;;;;;;;5031960;28;20030;-86
2023/10/17 00:14:23;;;;;;;8.55;4.55;;;;;;;;;;5052948;28;20025;-86
2023/10/17 00:16:55;;;;;;;13.20;4.30;;;;;;;;;;5066596;28;20024;-86
2023/10/17 00:19:31;;;;;;;8.77;3.80;;;;;;;;;;5071864;28;20033;-86
2023/10/17 00:22:03;;;;;;;12.00;4.70;;;;;;;;;;5067357;28;20036;-86
2023/10/17 00:24:30;;;;;;;8.90;4.30;;;;;;;;;;5051507;28;20036;-86
2023/10/17 00:26:57;;;;;;;9.63;4.60;;;;;;;;;;5051566;28;20025;-86
2023/10/17 00:29:23;;;;;;;;;;;;;;;;;;5051884;28;20295;-87
2023/10/17 00:31:49;;;;;;;8.30;4.93;;;;;;;;;;5039665;28;19909;-86
2023/10/17 00:34:16;;;;;;;8.27;4.40;;;;;;;;;;5068931;28;20104;-86
2023/10/17 00:36:49;;;;;;;13.37;4.37;;;;;;;;;;5043632;28;20033;-86
2023/10/17 00:39:36;;;;;;;14.82;4.68;;;;;;;;;;5032795;28;20029;-86
2023/10/17 00:44:33;;;;;;;11.70;4.07;;;;;;;;;;5069522;28;20033;-86
2023/10/17 00:47:02;;;;;;;11.23;4.65;;;;;;;;;;5040925;28;20453;-86
2023/10/17 00:49:42;;;;;;;11.77;3.75;;;;;;;;;;5072180;28;20483;-85
2023/10/17 00:52:17;;;;;;;11.57;4.45;;;;;;;;;;5053179;28;20082;-85
2023/10/17 00:54:44;;;;;;;13.15;4.75;;;;;;;;;;5053256;28;20506;-85
2023/10/17 00:57:13;;;;;;;10.55;4.28;;;;;;;;;;5060338;28;20029;-86
2023/10/17 00:59:49;;;;;;;12.77;4.35;;;;;;;;;;5055842;28;20047;-85
2023/10/17 01:02:15;;;;;;;11.35;4.78;;;;;;;;;;5050864;28;20040;-85
2023/10/17 01:04:44;;;;;;;7.87;4.13;;;;;;;;;;5040489;28;20485;-85
2023/10/17 01:07:25;;;;;;;7.63;4.43;;;;;;;;;;5041177;28;20030;-85
2023/10/17 01:09:55;;;;;;;14.93;4.88;;;;;;;;;;5049267;28;20176;-86
2023/10/17 01:12:28;;;;;;;9.50;4.35;;;;;;;;;;5038992;28;20032;-86
2023/10/17 01:14:57;;;;;;;9.50;4.55;;;;;;;;;;5051141;28;20064;-86
2023/10/17 01:17:27;;;;;;;9.30;4.15;;;;;;;;;;5050582;28;20079;-86
2023/10/17 01:19:59;;;;;;;11.55;4.88;;;;;;;;;;5055542;28;20029;-86
2023/10/17 01:22:25;;;;;;;9.85;4.50;;;;;;;;;;5030650;28;20509;-86
2023/10/17 01:24:53;;;;;;;11.85;4.53;;;;;;;;;;5040474;28;20178;-86
2023/10/17 01:27:22;;;;;;;11.40;5.20;;;;;;;;;;5070386;28;20036;-86
2023/10/17 01:29:48;;;;;;;11.80;4.68;;;;;;;;;;5034985;28;20100;-86
2023/10/17 01:32:15;;;;;;;5.57;4.27;;;;;;;;;;5015352;28;20399;-86
2023/10/17 01:34:41;;;;;;;12.23;4.55;;;;;;;;;;5050524;28;20048;-86
2023/10/17 01:37:10;;;;;;;10.15;5.50;;;;;;;;;;5050384;28;20036;-86
2023/10/17 01:39:37;;;;;;;12.95;4.82;;;;;;;;;;5063731;28;20025;-86
2023/10/17 01:42:05;;;;;;;11.45;5.68;;;;;;;;;;5071637;28;20037;-86
2023/10/17 01:44:31;;;;;;;12.82;5.43;;;;;;;;;;5043599;28;20033;-86
2023/10/17 01:46:59;;;;;;;16.90;5.45;;;;;;;;;;5030621;28;20395;-86
2023/10/17 01:49:27;;;;;;;22.23;6.00;;;;;;;;;;5030496;28;20025;-86
2023/10/17 01:51:57;;;;;;;13.02;6.13;;;;;;;;;;5031395;28;20041;-86
2023/10/17 01:54:23;;;;;;;14.75;5.40;;;;;;;;;;5043612;28;20403;-86
2023/10/17 01:56:49;;;;;;;12.02;6.25;;;;;;;;;;5066331;28;20115;-86
2023/10/17 01:59:28;;;;;;;10.35;5.55;;;;;;;;;;5068896;28;20119;-86
2023/10/17 02:01:57;;;;;;;13.70;4.97;;;;;;;;;;5052928;28;20033;-86
2023/10/17 02:04:24;;;;;;;11.40;5.63;;;;;;;;;;5069398;28;20033;-86
2023/10/17 02:06:51;;;;;;;18.23;4.95;;;;;;;;;;5070323;28;20036;-86
2023/10/17 02:10:07;;;;;;;8.93;5.60;;;;;;;;;;5065075;28;20028;-86
2023/10/17 02:12:05;;;;;;;15.43;5.07;;;;;;;;;;5065383;28;20040;-86
2023/10/17 02:14:31;;;;;;;8.45;4.53;;;;;;;;;;5043878;28;20024;-86
2023/10/17 02:16:59;;;;;;;15.73;5.38;;;;;;;;;;5066608;28;20042;-86
2023/10/17 02:19:26;;;;;;;15.23;5.00;;;;;;;;;;5034303;28;20452;-86
2023/10/17 02:21:54;;;;;;;10.35;5.28;;;;;;;;;;5017567;28;20458;-86
2023/10/17 02:24:21;;;;;;;13.30;4.47;;;;;;;;;;5050842;28;20055;-86
2023/10/17 02:26:59;;;;;;;12.73;5.43;;;;;;;;;;5046103;28;20036;-86
2023/10/17 02:29:26;;;;;;;14.77;5.07;;;;;;;;;;5063233;28;20028;-86
2023/10/17 02:31:55;;;;;;;15.32;5.50;;;;;;;;;;5057079;28;20025;-86
2023/10/17 02:34:30;;;;;;;20.88;6.30;;;;;;;;;;5057568;28;20071;-86
2023/10/17 02:36:59;;;;;;;10.80;5.55;;;;;;;;;;5045516;28;20395;-87
2023/10/17 02:39:26;;;;;;;8.45;5.68;;;;;;;;;;5061645;28;20471;-87
2023/10/17 02:42:06;;;;;;;8.25;4.65;;;;;;;;;;5055864;28;20079;-87
2023/10/17 02:44:39;;;;;;;10.68;5.47;;;;;;;;;;5068598;28;20461;-87
2023/10/17 02:47:10;;;;;;;16.85;5.10;;;;;;;;;;5071440;28;20032;-87
2023/10/17 02:49:38;;;;;;;8.60;4.70;;;;;;;;;;5056802;28;20452;-87
2023/10/17 02:52:05;;;;;;;15.48;4.82;;;;;;;;;;5048540;28;20021;-86
2023/10/17 02:54:43;;;;;;;8.85;5.53;;;;;;;;;;5053424;28;20070;-86
2023/10/17 02:57:09;;;;;;;;;;;;;;;;;;5049194;28;20091;-86
2023/10/17 02:59:35;;;;;;;8.75;4.53;;;;;;;;;;5054244;28;19911;-87
2023/10/17 03:02:05;;;;;;;9.73;5.17;;;;;;;;;;5040226;28;20037;-86
2023/10/17 03:04:31;;;;;;;10.38;4.80;;;;;;;;;;5065168;28;20283;-86
2023/10/17 03:06:59;;;;;;;12.10;5.25;;;;;;;;;;5051650;28;20078;-87
2023/10/17 03:14:40;;;;;;;12.70;4.40;;;;;;;;;;5070514;28;20120;-86
2023/10/17 03:17:10;;;;;;;11.73;5.10;;;;;;;;;;5037104;28;20029;-87
2023/10/17 03:19:37;;;;;;;9.90;5.03;;;;;;;;;;5033372;28;20123;-86
2023/10/17 03:22:18;;;;;;;16.05;5.05;;;;;;;;;;5030285;28;20029;-85
2023/10/17 03:24:51;;;;;;;8.60;5.07;;;;;;;;;;5037104;28;20067;-86
2023/10/17 03:27:26;;;;;;;11.23;4.75;;;;;;;;;;5060838;28;20074;-85
2023/10/17 03:29:53;;;;;;;10.07;4.35;;;;;;;;;;5055247;28;20507;-85
2023/10/17 03:32:21;;;;;;;15.77;4.93;;;;;;;;;;5054412;28;20113;-85
2023/10/17 03:34:56;;;;;;;10.13;4.90;;;;;;;;;;5055771;28;20441;-86
2023/10/17 03:39:56;;;;;;;11.20;5.07;;;;;;;;;;5053616;28;20120;-86
2023/10/17 03:45:16;;;;;;;16.15;4.80;;;;;;;;;;5052177;28;20127;-86
2023/10/17 03:47:47;;;;;;;16.27;5.07;;;;;;;;;;5064658;28;20036;-87
2023/10/17 03:50:31;;;;;;;13.40;5.90;;;;;;;;;;5072193;28;20021;-86
2023/10/17 03:53:04;;;;;;;17.88;5.68;;;;;;;;;;5055598;28;20028;-86
2023/10/17 03:55:31;;;;;;;9.20;4.50;;;;;;;;;;5072519;28;20021;-85
2023/10/17 03:57:59;;;;;;;16.17;4.50;;;;;;;;;;5072493;28;20029;-86
2023/10/17 04:00:28;;;;;;;8.10;4.05;;;;;;;;;;5072124;28;20059;-86
2023/10/17 04:02:54;;;;;;;8.38;4.18;;;;;;;;;;5055380;28;20024;-86
2023/10/17 04:05:23;;;;;;;9.90;4.70;;;;;;;;;;5071800;28;20024;-86
2023/10/17 04:07:51;;;;;;;11.45;4.18;;;;;;;;;;5073330;28;20017;-85
2023/10/17 04:10:22;;;;;;;11.80;4.35;;;;;;;;;;5072016;28;20024;-86
2023/10/17 04:12:49;;;;;;;10.00;4.18;;;;;;;;;;5055272;28;20028;-85
2023/10/17 04:15:19;;;;;;;10.80;4.50;;;;;;;;;;5072888;28;20394;-86
2023/10/17 04:17:46;;;;;;;15.60;5.47;;;;;;;;;;5071830;28;20036;-86
2023/10/17 04:20:12;;;;;;;;;;;;;;;;;;5072221;28;20032;-86
2023/10/17 04:22:44;;;;;;;10.70;4.75;;;;;;;;;;5071769;28;19918;-85
2023/10/17 04:25:20;;;;;;;13.30;5.13;;;;;;;;;;5054828;28;20029;-85
2023/10/17 04:27:59;;;;;;;12.90;4.68;;;;;;;;;;5071246;28;20040;-86
2023/10/17 04:31:10;;;;;;;16.33;4.93;;;;;;;;;;5071319;28;20376;-86
2023/10/17 04:33:19;;;;;;;7.43;4.00;;;;;;;;;;5063275;28;20094;-86
2023/10/17 04:35:54;;;;;;;10.93;4.75;;;;;;;;;;5072732;28;20020;-85
2023/10/17 04:38:26;;;;;;;12.55;4.90;;;;;;;;;;5071403;28;20478;-86
2023/10/17 04:41:17;;;;;;;9.45;5.03;;;;;;;;;;5071346;28;20036;-86
2023/10/17 04:43:45;;;;;;;14.13;5.35;;;;;;;;;;5071286;28;20111;-86
2023/10/17 04:46:12;;;;;;;14.13;4.45;;;;;;;;;;5071331;28;20040;-86
2023/10/17 04:48:46;;;;;;;14.68;5.68;;;;;;;;;;5071263;28;20055;-85
2023/10/17 04:53:48;;;;;;;13.48;5.60;;;;;;;;;;5072345;28;20036;-86
2023/10/17 04:56:24;;;;;;;13.70;4.72;;;;;;;;;;5071404;28;20020;-86
2023/10/17 04:58:53;;;;;;;8.98;5.10;;;;;;;;;;5071517;28;20522;-87
2023/10/17 05:01:36;;;;;;;9.13;4.82;;;;;;;;;;5071206;28;20442;-87
2023/10/17 05:04:20;;;;;;;13.82;5.45;;;;;;;;;;5071161;28;20403;-86
2023/10/17 06:16:49;;;;;;;14.48;5.47;;;;;;;;;;5071253;28;20044;-87
2023/10/17 06:18:27;;;;;;;11.77;5.65;;;;;;;;;;5001183;28;20041;-83
2023/10/17 06:21:06;;;;;;;11.02;4.80;;;;;;;;;;5037954;28;20033;-84
2023/10/17 06:34:18;;;;;;;9.50;4.35;;;;;;;;;;5056161;28;20056;-82
2023/10/17 06:36:49;;;;;;;11.43;5.35;;;;;;;;;;5059007;28;20032;-81
2023/10/17 06:39:19;;;;;;;9.20;4.95;;;;;;;;;;5054222;28;20033;-82
2023/10/17 06:44:30;;;;;;;14.57;4.93;;;;;;;;;;5256097;22;20067;-58
2023/10/17 06:47:16;;;;;;;16.27;5.82;;;;;;;;;;5024652;28;20032;-56
2023/10/17 06:54:41;;;;;;;11.23;4.97;;;;;;;;;;5036614;28;20042;-57
2023/10/17 06:57:22;;;;;;;9.45;4.90;;;;;;;;;;5035137;28;20021;-54
2023/10/17 06:59:52;;;;;;;14.98;4.57;;;;;;;;;;5034572;28;20044;-54
2023/10/17 07:02:27;;;;;;;15.73;5.20;;;;;;;;;;5034685;28;20048;-56
2023/10/17 07:04:55;;;;;;;9.35;4.38;;;;;;;;;;5034436;28;20503;-55
2023/10/17 07:07:31;;;;;;;10.50;4.35;;;;;;;;;;5034676;28;20446;-57
2023/10/17 07:10:16;;;;;;;14.43;4.68;;;;;;;;;;5034450;28;20037;-55
2023/10/17 07:12:47;;;;;;;10.05;3.90;;;;;;;;;;5034356;28;20064;-57
2023/10/17 07:15:20;;;;;;;7.38;4.03;;;;;;;;;;5034149;28;20038;-55
2023/10/17 07:17:54;;;;;;;14.57;5.10;;;;;;;;;;5034359;28;20025;-57
2023/10/17 07:23:14;;;;;;;13.98;5.55;;;;;;;;;;5034078;28;20029;-52
2023/10/17 07:25:43;;;;;;;8.32;3.67;;;;;;;;;;5016715;28;20045;-58
2023/10/17 07:28:10;;;;;;;10.52;3.60;;;;;;;;;;5034182;28;20640;-55
2023/10/17 07:30:49;;;;;;;7.95;4.28;;;;;;;;;;5034043;28;20513;-52
2023/10/17 07:33:18;;;;;;;8.85;3.80;;;;;;;;;;5033826;28;20071;-54
2023/10/17 07:35:44;;;;;;;18.00;4.32;;;;;;;;;;5034059;28;20029;-56
2023/10/17 07:38:14;;;;;;;9.03;4.37;;;;;;;;;;5034062;28;20084;-56
2023/10/17 07:43:07;;;;;;;5.07;3.47;;;;;;;;;;5033550;28;20088;-53
2023/10/17 07:45:39;;;;;;;;;;;;;;;;;;5016512;28;20275;-54
2023/10/17 07:48:20;;;;;;;7.45;3.53;;;;;;;;;;5016000;28;19916;-55
2023/10/17 07:50:50;;;;;;;12.88;4.00;;;;;;;;;;5033882;28;20033;-55
2023/10/17 07:53:19;;;;;;;9.43;3.30;;;;;;;;;;5033533;28;20410;-54
2023/10/17 07:55:48;;;;;;;9.43;2.42;;;;;;;;;;5033552;28;20504;-53
2023/10/17 07:58:30;;;;;;;11.65;2.67;;;;;;;;;;5015863;28;20402;-55
2023/10/17 08:00:56;;;;;;;5.00;3.08;;;;;;;;;;5033753;28;20029;-53
2023/10/17 08:03:27;;;;;;;14.38;3.78;;;;;;;;;;5015570;28;20778;-54
2023/10/17 08:08:42;;;;;;;9.73;3.25;;;;;;;;;;5033345;28;20506;-54
2023/10/17 08:11:24;;;;;;;6.72;2.83;;;;;;;;;;5033402;28;20369;-57
2023/10/17 08:13:50;;;;;;;5.05;2.83;;;;;;;;;;5015558;28;20116;-56
2023/10/17 08:16:24;;;;;;;6.28;2.53;;;;;;;;;;5033371;28;20476;-57
2023/10/17 08:18:58;;;;;;;7.93;2.53;;;;;;;;;;5033209;28;20065;-60
2023/10/17 08:21:33;;;;;;;13.20;3.05;;;;;;;;;;5033127;28;20068;-56
2023/10/17 08:24:05;;;;;;;16.45;3.20;;;;;;;;;;5032899;28;20033;-56
2023/10/17 08:26:39;;;;;;;6.05;2.90;;;;;;;;;;5033130;28;20120;-55
2023/10/17 08:29:08;;;;;;;10.40;2.95;;;;;;;;;;5032899;28;20029;-53
2023/10/17 08:31:44;;;;;;;12.95;3.15;;;;;;;;;;5032992;28;20018;-53
2023/10/17 08:34:15;;;;;;;10.27;2.40;;;;;;;;;;5032732;28;20017;-54
2023/10/17 08:42:05;;;;;;;5.63;2.92;;;;;;;;;;5032854;28;20026;-53
2023/10/17 08:44:34;;;;;;;7.03;2.63;;;;;;;;;;5032446;28;20120;-57
2023/10/17 08:47:01;;;;;;;5.80;1.95;;;;;;;;;;5015007;28;20056;-50
2023/10/17 08:49:28;;;;;;;5.75;2.65;;;;;;;;;;5015035;28;20092;-50
2023/10/17 08:51:57;;;;;;;;;;;;;;;;;;5032882;28;20028;-52
2023/10/17 08:54:28;;;;;;;5.57;1.85;;;;;;;;;;5031354;28;19905;-49
2023/10/17 08:56:55;;;;;;;4.30;1.75;;;;;;;;;;5032393;28;20072;-50
2023/10/17 09:02:48;;;;;;;4.23;2.03;;;;;;;;;;4982033;28;20038;-49
2023/10/17 09:05:13;;;;;;;6.80;2.47;;;;;;;;;;5027238;28;20061;-49
2023/10/17 09:07:43;;;;;;;7.00;2.40;;;;;;;;;;5014614;28;20038;-49
2023/10/17 09:10:38;;;;;;;5.50;2.63;;;;;;;;;;5014493;28;20091;-49
2023/10/17 09:15:59;;;;;;;12.30;2.53;;;;;;;;;;5031715;28;20049;-50
2023/10/17 09:18:31;;;;;;;6.20;2.95;;;;;;;;;;5014312;28;20403;-51
2023/10/17 09:20:58;;;;;;;9.30;3.30;;;;;;;;;;5014259;28;20494;-49
2023/10/17 09:23:28;;;;;;;6.03;2.95;;;;;;;;;;5031840;28;20060;-50
2023/10/17 09:25:58;;;;;;;11.55;2.88;;;;;;;;;;5031946;28;20060;-51
2023/10/17 09:28:25;;;;;;;4.55;2.13;;;;;;;;;;5031855;28;20484;-49
2023/10/17 09:31:06;;;;;;;7.75;2.22;;;;;;;;;;5032068;28;20443;-49
2023/10/17 09:33:32;;;;;;;4.65;2.25;;;;;;;;;;5031502;28;20080;-49
2023/10/17 09:35:59;;;;;;;4.55;2.28;;;;;;;;;;5032304;28;20434;-49
2023/10/17 09:38:29;;;;;;;7.55;2.10;;;;;;;;;;5031719;28;20056;-50
2023/10/17 09:40:59;;;;;;;5.43;2.92;;;;;;;;;;5031718;28;20083;-49
2023/10/17 09:43:25;;;;;;;5.18;2.47;;;;;;;;;;5031417;28;20041;-49
2023/10/17 09:45:52;;;;;;;12.60;2.80;;;;;;;;;;5031803;28;20030;-49
2023/10/17 09:48:22;;;;;;;7.15;3.13;;;;;;;;;;5031660;28;20359;-49
2023/10/17 09:50:50;;;;;;;6.43;2.47;;;;;;;;;;5031570;28;20080;-50
2023/10/17 09:53:17;;;;;;;5.75;2.25;;;;;;;;;;5031467;28;20025;-49
2023/10/17 09:55:47;;;;;;;10.98;2.10;;;;;;;;;;5031632;28;20022;-51
2023/10/17 09:58:17;;;;;;;3.47;2.00;;;;;;;;;;5031627;28;20387;-49
2023/10/17 10:00:46;;;;;;;8.63;2.72;;;;;;;;;;5031534;28;20095;-49
2023/10/17 10:03:13;;;;;;;8.38;2.85;;;;;;;;;;5031283;28;20033;-50
2023/10/17 10:05:39;;;;;;;4.82;1.90;;;;;;;;;;5013692;28;20499;-49
2023/10/17 10:08:25;;;;;;;6.77;2.97;;;;;;;;;;5031490;28;20156;-52
2023/10/17 10:10:52;;;;;;;7.85;2.97;;;;;;;;;;5031592;28;20732;-49
2023/10/17 10:13:19;;;;;;;13.52;2.70;;;;;;;;;;5031197;28;20392;-50
2023/10/17 10:15:45;;;;;;;;;;;;;;;;;;5030673;28;20021;-50
2023/10/17 10:18:12;;;;;;;6.57;2.65;;;;;;;;;;5031335;28;20291;-50
2023/10/17 10:20:38;;;;;;;;;;;;;;;;;;5011984;28;20034;-50
2023/10/17 10:23:05;;;;;;;7.68;2.83;;;;;;;;;;5000895;28;19917;-52
2023/10/17 10:25:31;;;;;;;7.80;2.60;;;;;;;;;;4996260;28;20034;-52
2023/10/17 10:28:17;;;;;;;3.90;2.35;;;;;;;;;;5034036;28;20028;-51
2023/10/17 10:30:43;;;;;;;5.60;3.08;;;;;;;;;;5027379;28;20406;-50
2023/10/17 10:33:11;;;;;;;7.13;2.75;;;;;;;;;;5034746;28;20028;-48
2023/10/17 10:35:39;;;;;;;10.23;2.60;;;;;;;;;;5033261;28;20024;-49
2023/10/17 10:38:06;;;;;;;11.57;3.67;;;;;;;;;;4997770;28;20124;-49
2023/10/17 10:40:32;;;;;;;;;;;;;;;;;;5003162;28;20101;-51
2023/10/17 10:43:01;;;;;;;7.75;2.75;;;;;;;;;;5024034;28;19914;-50
2023/10/17 10:48:17;;;;;;;6.70;2.67;;;;;;;;;;5024455;28;20042;-51
2023/10/17 10:50:48;;;;;;;7.90;2.50;;;;;;;;;;5005877;28;20034;-49
2023/10/17 10:53:36;;;;;;;7.55;2.60;;;;;;;;;;5018600;28;20018;-49
2023/10/17 10:56:03;;;;;;;228.10;188.95;;;;;;;;;;5015119;28;20041;-49
2023/10/17 10:58:30;;;;;;;46.45;34.90;;;;;;;;;;5020000;28;20377;-48
2023/10/17 11:00:58;;;;;;;;;;;;;;;;;;5029982;28;20380;-52
2023/10/17 11:03:24;;;;;;;6.15;3.97;;;;;;;;;;5016047;28;19916;-48
2023/10/17 11:05:52;;;;;;;9.98;3.38;;;;;;;;;;5027312;28;20029;-50
2023/10/17 11:08:19;;;;;;;4.45;2.47;;;;;;;;;;5034181;28;20109;-48
2023/10/17 11:10:46;;;;;;;;;;;;;;;;;;5021851;28;20365;-50
2023/10/17 11:13:13;;;;;;;4.00;2.15;;;;;;;;;;5022442;28;19975;-48
2023/10/17 11:15:43;;;;;;;4.78;2.80;;;;;;;;;;5022298;28;20555;-48
2023/10/17 11:18:10;;;;;;;8.23;2.40;;;;;;;;;;5029523;28;20683;-48
2023/10/17 11:20:40;;;;;;;6.18;2.55;;;;;;;;;;4998124;28;20084;-47
2023/10/17 11:23:08;;;;;;;8.85;3.15;;;;;;;;;;5015583;28;20099;-48
2023/10/17 11:25:35;;;;;;;5.40;3.35;;;;;;;;;;5014563;28;20034;-48
2023/10/17 11:28:02;;;;;;;5.50;1.98;;;;;;;;;;5014373;28;20025;-51
2023/10/17 11:30:42;;;;;;;5.60;3.13;;;;;;;;;;5017399;28;20026;-50
2023/10/17 11:33:13;;;;;;;5.28;2.50;;;;;;;;;;5031175;28;20121;-52
2023/10/17 11:35:46;;;;;;;13.02;2.80;;;;;;;;;;5014435;28;20370;-47
2023/10/17 11:38:33;;;;;;;8.00;3.05;;;;;;;;;;5013839;28;20423;-49
2023/10/17 11:41:00;;;;;;;14.70;3.70;;;;;;;;;;5014189;28;20080;-48
2023/10/17 11:43:33;;;;;;;;;;;;;;;;;;5020608;28;20022;-49
2023/10/17 11:46:00;;;;;;;4.80;2.08;;;;;;;;;;5022954;28;19913;-49
2023/10/17 11:48:33;;;;;;;2.70;2.13;;;;;;;;;;5033442;28;20068;-48
2023/10/17 11:51:17;;;;;;;3.75;2.03;;;;;;;;;;5015930;28;20026;-52
2023/10/17 11:54:03;;;;;;;5.47;1.77;;;;;;;;;;5027346;28;20026;-51
2023/10/17 11:56:31;;;;;;;6.10;2.72;;;;;;;;;;5013912;28;20026;-52
2023/10/17 11:58:57;;;;;;;5.10;2.10;;;;;;;;;;5026414;28;20075;-51
2023/10/17 12:01:23;;;;;;;6.33;2.53;;;;;;;;;;5022764;28;20030;-51
2023/10/17 12:03:57;;;;;;;2.65;1.98;;;;;;;;;;5026024;28;20341;-50
2023/10/17 12:06:26;;;;;;;3.08;1.83;;;;;;;;;;5009764;28;20508;-52
2023/10/17 12:08:56;;;;;;;7.30;2.78;;;;;;;;;;5021287;28;20025;-52
2023/10/17 12:11:24;;;;;;;10.95;3.08;;;;;;;;;;5022885;28;20034;-50
2023/10/17 12:13:55;;;;;;;4.45;2.15;;;;;;;;;;5025003;28;20044;-52
2023/10/17 12:16:23;;;;;;;6.07;2.10;;;;;;;;;;5022549;28;20088;-51
2023/10/17 12:18:52;;;;;;;3.92;2.08;;;;;;;;;;5022883;28;20032;-53
2023/10/17 12:21:19;;;;;;;6.13;2.63;;;;;;;;;;5033967;28;20021;-54
2023/10/17 12:23:45;;;;;;;6.00;2.75;;;;;;;;;;5033706;28;20030;-51
2023/10/17 12:26:14;;;;;;;4.68;2.38;;;;;;;;;;5038476;28;20057;-51
2023/10/17 12:28:41;;;;;;;7.25;2.42;;;;;;;;;;4996708;28;20405;-54
2023/10/17 12:31:07;;;;;;;;;;;;;;;;;;5041805;28;20032;-52
2023/10/17 12:33:33;;;;;;;5.35;2.70;;;;;;;;;;5026001;28;20300;-51
2023/10/17 12:35:59;;;;;;;87.40;11.65;;;;;;;;;;5016793;28;20030;-51
2023/10/17 12:38:33;;;;;;;39.85;5.43;;;;;;;;;;5026630;28;20036;-51
2023/10/17 12:40:59;;;;;;;4.72;2.35;;;;;;;;;;5027218;28;20507;-52
2023/10/17 12:43:26;;;;;;;6.90;2.75;;;;;;;;;;5023790;28;20040;-51
2023/10/17 12:45:52;;;;;;;10.63;2.80;;;;;;;;;;5021700;28;20160;-51
2023/10/17 12:48:18;;;;;;;8.50;2.65;;;;;;;;;;5040858;28;20028;-52
2023/10/17 12:50:45;;;;;;;4.80;2.40;;;;;;;;;;5020552;28;20106;-53
2023/10/17 12:53:12;;;;;;;7.10;2.40;;;;;;;;;;5012776;28;20032;-54
2023/10/17 12:55:39;;;;;;;5.90;2.28;;;;;;;;;;5031171;28;20029;-54
2023/10/17 12:58:07;;;;;;;5.38;1.70;;;;;;;;;;5004099;28;20026;-55
2023/10/17 13:00:34;;;;;;;5.10;2.85;;;;;;;;;;5032498;28;20029;-53
2023/10/17 13:03:00;;;;;;;6.40;2.40;;;;;;;;;;5052165;28;20025;-51
2023/10/17 13:05:27;;;;;;;6.68;2.63;;;;;;;;;;5052105;28;20024;-50
2023/10/17 13:07:53;;;;;;;4.45;2.20;;;;;;;;;;5031530;28;20025;-51
2023/10/17 13:10:19;;;;;;;5.25;2.78;;;;;;;;;;5028956;28;20095;-51
2023/10/17 13:12:49;;;;;;;4.93;2.13;;;;;;;;;;5051096;28;20104;-52
2023/10/17 13:15:17;;;;;;;3.42;2.55;;;;;;;;;;5033919;28;20036;-51
2023/10/17 13:17:44;;;;;;;6.43;2.60;;;;;;;;;;5052089;28;20032;-49
2023/10/17 13:20:11;;;;;;;5.32;2.97;;;;;;;;;;5052149;28;20048;-54
2023/10/17 13:22:46;;;;;;;5.88;2.70;;;;;;;;;;5051940;28;20495;-50
2023/10/17 13:25:13;;;;;;;6.43;2.33;;;;;;;;;;5038889;28;20041;-55
2023/10/17 13:27:39;;;;;;;13.55;3.63;;;;;;;;;;5001181;28;20423;-49
2023/10/17 13:30:06;;;;;;;4.30;2.60;;;;;;;;;;5051820;28;20056;-49
2023/10/17 13:32:33;;;;;;;4.88;2.45;;;;;;;;;;5049902;28;20093;-51
2023/10/17 13:34:59;;;;;;;;;;;;;;;;;;5052097;28;20480;-52
2023/10/17 13:37:28;;;;;;;9.60;3.22;;;;;;;;;;5051654;28;20003;-49
2023/10/17 13:39:55;;;;;;;9.07;2.60;;;;;;;;;;5051735;28;20021;-49
2023/10/17 13:42:21;;;;;;;13.00;2.70;;;;;;;;;;5051665;28;20115;-48
2023/10/17 13:44:48;;;;;;;9.07;2.78;;;;;;;;;;5033388;28;20037;-55
2023/10/17 13:47:16;;;;;;;5.20;2.67;;;;;;;;;;5051734;28;20025;-48
2023/10/17 13:49:42;;;;;;;8.55;3.10;;;;;;;;;;5016761;28;20109;-51
2023/10/17 13:52:09;;;;;;;5.53;3.00;;;;;;;;;;4994458;28;20037;-49
2023/10/17 13:54:35;;;;;;;;;;;;;;;;;;5000201;28;20431;-49
2023/10/17 13:57:06;;;;;;;7.63;3.05;;;;;;;;;;5045346;28;20371;-49
2023/10/17 13:59:39;;;;;;;6.40;2.90;;;;;;;;;;5029998;28;20034;-49
2023/10/17 14:02:08;;;;;;;5.30;2.22;;;;;;;;;;4986262;28;20030;-49
2023/10/17 14:04:36;;;;;;;4.00;1.75;;;;;;;;;;5021943;28;20459;-49
2023/10/17 14:07:06;;;;;;;5.90;2.38;;;;;;;;;;5018838;28;20102;-49
2023/10/17 14:09:32;;;;;;;11.32;2.35;;;;;;;;;;5020338;28;20063;-49
2023/10/17 14:11:59;;;;;;;6.80;2.30;;;;;;;;;;5020408;28;20045;-47
2023/10/17 14:14:25;;;;;;;3.55;2.08;;;;;;;;;;5037847;28;20022;-49
2023/10/17 14:16:52;;;;;;;5.32;2.15;;;;;;;;;;5038000;28;20421;-47
2023/10/17 14:19:31;;;;;;;3.55;1.77;;;;;;;;;;5020321;28;20503;-51
2023/10/17 14:27:24;;;;;;;4.88;2.30;;;;;;;;;;5037956;28;20083;-50
2023/10/17 14:29:51;;;;;;;7.95;2.30;;;;;;;;;;5037828;28;20034;-51
2023/10/17 14:32:17;;;;;;;;;;;;;;;;;;5038538;28;20017;-49
2023/10/17 14:34:44;;;;;;;3.78;2.50;;;;;;;;;;5037674;28;19954;-52
2023/10/17 14:37:13;;;;;;;10.13;2.75;;;;;;;;;;5037997;28;20032;-49
2023/10/17 14:39:40;;;;;;;5.40;2.40;;;;;;;;;;5037887;28;20118;-49
2023/10/17 14:42:06;;;;;;;4.55;2.45;;;;;;;;;;5037922;28;20171;-49
2023/10/17 14:44:35;;;;;;;6.97;1.95;;;;;;;;;;5037452;28;20037;-50
2023/10/17 14:47:01;;;;;;;8.02;2.30;;;;;;;;;;5037855;28;20507;-50
2023/10/17 14:49:27;;;;;;;7.40;2.58;;;;;;;;;;5037965;28;20118;-49
2023/10/17 14:51:53;;;;;;;5.18;2.72;;;;;;;;;;5037845;28;20031;-49
2023/10/17 14:54:23;;;;;;;6.70;2.97;;;;;;;;;;5019751;28;20076;-49
2023/10/17 14:56:50;;;;;;;3.25;2.17;;;;;;;;;;5037739;28;20030;-49
2023/10/17 14:59:17;;;;;;;4.90;2.05;;;;;;;;;;5037630;28;20057;-49
2023/10/17 15:01:44;;;;;;;10.23;2.90;;;;;;;;;;5037794;28;20033;-48
2023/10/17 15:04:10;;;;;;;3.08;2.13;;;;;;;;;;5018801;28;20369;-48
2023/10/17 15:06:37;;;;;;;3.22;2.33;;;;;;;;;;5037575;28;20029;-48
2023/10/17 15:09:07;;;;;;;9.48;2.58;;;;;;;;;;5037419;28;20030;-49
2023/10/17 15:11:33;;;;;;;6.85;2.42;;;;;;;;;;5037635;28;20026;-48
2023/10/17 15:14:04;;;;;;;6.70;2.13;;;;;;;;;;5033586;28;20025;-48
2023/10/17 15:16:31;;;;;;;4.30;2.20;;;;;;;;;;5034272;28;20035;-47
2023/10/17 15:18:57;;;;;;;8.88;2.47;;;;;;;;;;5034312;28;20492;-48
2023/10/17 15:21:26;;;;;;;6.18;2.50;;;;;;;;;;5034178;28;20037;-47
2023/10/17 15:23:52;;;;;;;4.88;2.20;;;;;;;;;;4999940;28;20047;-49
2023/10/17 15:26:24;;;;;;;5.55;2.20;;;;;;;;;;5034172;28;20029;-47
2023/10/17 15:28:51;;;;;;;3.92;2.17;;;;;;;;;;5034112;28;20025;-48
2023/10/17 15:31:17;;;;;;;8.88;2.55;;;;;;;;;;5016462;28;20484;-47
2023/10/17 15:33:46;;;;;;;12.30;2.72;;;;;;;;;;5033865;28;20033;-48
2023/10/17 15:36:14;;;;;;;5.78;2.30;;;;;;;;;;5033991;28;20080;-47
2023/10/17 15:38:41;;;;;;;6.32;2.40;;;;;;;;;;5033906;28;20034;-49
2023/10/17 15:41:09;;;;;;;6.20;2.20;;;;;;;;;;5016140;28;20022;-49
2023/10/17 15:43:35;;;;;;;8.93;2.75;;;;;;;;;;5015780;28;20566;-47
2023/10/17 15:46:01;;;;;;;6.68;2.35;;;;;;;;;;5033875;28;20083;-49
2023/10/17 15:48:28;;;;;;;7.65;2.72;;;;;;;;;;5033517;28;20112;-47
2023/10/17 15:50:55;;;;;;;48.50;5.10;;;;;;;;;;5016003;28;20030;-48
2023/10/17 15:53:22;;;;;;;8.23;2.67;;;;;;;;;;5033394;28;20023;-47
2023/10/17 15:55:55;;;;;;;5.68;2.40;;;;;;;;;;5033686;28;20037;-47
2023/10/17 15:58:26;;;;;;;9.85;2.13;;;;;;;;;;5033634;28;20057;-47
2023/10/17 16:00:53;;;;;;;17.40;3.95;;;;;;;;;;5033701;28;20407;-50
2023/10/17 16:03:20;;;;;;;8.18;2.67;;;;;;;;;;5033253;28;20029;-48
2023/10/17 16:05:47;;;;;;;7.63;2.83;;;;;;;;;;5033520;28;20457;-52
2023/10/17 16:08:14;;;;;;;17.15;3.03;;;;;;;;;;5033517;28;20036;-50
2023/10/17 16:10:40;;;;;;;;;;;;;;;;;;5033945;28;20447;-49
2023/10/17 16:13:11;;;;;;;9.95;3.10;;;;;;;;;;5033179;28;19909;-49
2023/10/17 16:15:38;;;;;;;9.43;2.60;;;;;;;;;;5015674;28;20503;-51
2023/10/17 16:18:05;;;;;;;12.95;2.97;;;;;;;;;;5033254;28;20022;-49
2023/10/17 16:20:32;;;;;;;9.40;2.60;;;;;;;;;;5033226;28;20029;-50
2023/10/17 16:22:59;;;;;;;17.67;2.95;;;;;;;;;;5033132;28;20476;-50
2023/10/17 16:25:25;;;;;;;11.48;3.30;;;;;;;;;;5031933;28;20026;-47
2023/10/17 16:27:52;;;;;;;11.63;3.85;;;;;;;;;;5033137;28;20120;-50
2023/10/17 16:30:20;;;;;;;17.45;3.15;;;;;;;;;;5032913;28;20589;-49
2023/10/17 16:32:46;;;;;;;13.50;3.95;;;;;;;;;;5032914;28;20491;-49
2023/10/17 16:35:16;;;;;;;14.75;3.15;;;;;;;;;;5032955;28;20029;-52
2023/10/17 16:37:49;;;;;;;9.63;2.85;;;;;;;;;;5032927;28;20103;-49
2023/10/17 16:40:15;;;;;;;38.65;22.25;;;;;;;;;;5029701;28;20022;-51
2023/10/17 16:42:42;;;;;;;20.95;6.40;;;;;;;;;;5032378;28;20025;-50
2023/10/17 16:45:11;;;;;;;12.27;3.80;;;;;;;;;;5012863;28;20029;-50
2023/10/17 16:47:37;;;;;;;7.72;2.95;;;;;;;;;;5012612;28;20030;-50
2023/10/17 16:50:05;;;;;;;15.32;3.63;;;;;;;;;;4998843;28;20038;-54
2023/10/17 16:52:31;;;;;;;8.80;2.67;;;;;;;;;;5012709;28;20030;-51
2023/10/17 16:54:58;;;;;;;8.38;2.97;;;;;;;;;;5000738;28;20033;-50
2023/10/17 16:57:24;;;;;;;9.73;2.78;;;;;;;;;;5010214;28;20396;-50
2023/10/17 16:59:51;;;;;;;12.02;3.58;;;;;;;;;;5027879;28;20028;-50
2023/10/17 17:02:18;;;;;;;12.52;3.50;;;;;;;;;;5032336;28;20082;-50
2023/10/17 17:04:44;;;;;;;6.82;3.22;;;;;;;;;;5032071;28;20033;-50
2023/10/17 17:07:10;;;;;;;10.07;3.28;;;;;;;;;;5031174;28;20044;-50
2023/10/17 17:09:37;;;;;;;14.60;3.80;;;;;;;;;;5031462;28;20079;-50
2023/10/17 17:12:05;;;;;;;9.73;3.30;;;;;;;;;;5032163;28;20295;-49
2023/10/17 17:14:31;;;;;;;16.80;4.43;;;;;;;;;;5023152;28;20015;-49